Time;durP1;ratioP1;P1;durP2;ratioP2;P2;SDS_P1;SDS_P2;PMS_P1;PMS_P2;Temp;Humidity;BMP_temperature;BMP_pressure;BME280_temperature;BME280_humidity;BME280_pressure;Samples;Min_cycle;Max_cycle;Signal;HPM_P1;HPM_P2
2022/03/09 00:02:05;;;;;;;5.55;3.67;;;;;;;0.44;74.85;100045.84;10460761;28;20037;-79
2022/03/09 00:07:06;;;;;;;5.47;3.35;;;;;;;1.20;74.54;100169.38;10460465;28;20041;-79
2022/03/09 00:12:07;;;;;;;7.25;3.70;;;;;;;1.12;74.78;100161.25;10460483;28;20099;-78
2022/03/09 00:17:08;;;;;;;11.13;6.30;;;;;;;0.98;75.00;100174.47;10493353;28;20435;-79
2022/03/09 00:22:09;;;;;;;8.20;5.07;;;;;;;0.75;75.40;100136.91;10501758;28;20039;-78
2022/03/09 00:27:09;;;;;;;6.53;4.10;;;;;;;0.62;75.84;100136.94;10501834;28;20040;-79
2022/03/09 00:32:11;;;;;;;7.20;4.18;;;;;;;0.18;75.71;100097.38;10501588;28;20044;-79
2022/03/09 00:37:12;;;;;;;8.85;4.30;;;;;;;0.34;76.94;100149.38;10501443;28;20508;-79
2022/03/09 00:42:13;;;;;;;8.07;4.47;;;;;;;-0.28;77.05;100056.16;10500530;28;20068;-79
2022/03/09 00:47:14;;;;;;;7.75;3.75;;;;;;;-1.01;76.58;99918.56;10500303;28;20044;-79
2022/03/09 00:52:15;;;;;;;7.40;4.10;;;;;;;0.59;76.75;100153.69;10500901;28;20492;-79
2022/03/09 00:57:16;;;;;;;8.25;4.20;;;;;;;0.30;76.64;100095.66;10500352;28;20499;-78
2022/03/09 01:02:17;;;;;;;7.53;4.07;;;;;;;0.59;77.15;100145.00;10500603;28;20056;-79
2022/03/09 01:07:18;;;;;;;6.35;4.13;;;;;;;-0.33;75.88;99987.78;10500398;28;20043;-78
2022/03/09 01:12:18;;;;;;;6.35;4.00;;;;;;;0.49;75.88;100125.72;10499583;28;20486;-79
2022/03/09 01:17:19;;;;;;;8.02;4.28;;;;;;;0.61;75.72;100154.41;10499314;28;20048;-78
2022/03/09 01:22:20;;;;;;;6.47;4.43;;;;;;;0.52;75.67;100138.56;10499657;28;20123;-79
2022/03/09 01:27:21;;;;;;;6.65;4.13;;;;;;;0.53;75.14;100163.75;10499491;28;20048;-79
2022/03/09 01:32:22;;;;;;;7.80;4.57;;;;;;;0.52;74.92;100165.53;10494944;28;20067;-79
2022/03/09 01:37:23;;;;;;;10.18;5.88;;;;;;;-0.31;74.60;100037.25;10477667;28;20067;-79
2022/03/09 01:42:23;;;;;;;6.82;4.63;;;;;;;-0.26;74.96;100076.94;10457823;28;20044;-78
2022/03/09 01:47:24;;;;;;;9.65;5.78;;;;;;;0.56;75.05;100197.50;10485469;28;20044;-79
2022/03/09 01:52:26;;;;;;;9.52;4.85;;;;;;;0.54;75.05;100191.53;10498288;28;20487;-79
2022/03/09 01:57:29;;;;;;;6.53;4.35;;;;;;;0.74;74.73;100214.50;10498472;28;20048;-78
2022/03/09 02:02:30;;;;;;;12.03;6.63;;;;;;;0.71;74.27;100193.81;10498304;28;20048;-79
2022/03/09 02:12:53;;;;;;;10.52;6.45;;;;;;;0.85;74.13;100193.69;10498269;28;20126;-79
2022/03/09 02:17:54;;;;;;;9.02;5.03;;;;;;;0.66;74.31;100156.72;10496840;28;20082;-79
2022/03/09 02:22:55;;;;;;;15.82;8.20;;;;;;;0.84;74.06;100197.25;10496420;28;20397;-78
2022/03/09 02:27:55;;;;;;;9.57;5.13;;;;;;;0.79;74.23;100186.28;10496358;28;20032;-79
2022/03/09 02:32:56;;;;;;;8.57;4.60;;;;;;;0.26;74.35;100083.75;10496517;28;20041;-79
2022/03/09 02:37:57;;;;;;;7.43;4.80;;;;;;;0.67;74.17;100145.31;10496291;28;20037;-78
2022/03/09 02:42:59;;;;;;;8.13;5.18;;;;;;;0.78;74.09;100176.75;10483290;28;20070;-78
2022/03/09 02:47:59;;;;;;;19.90;5.07;;;;;;;0.68;74.28;100165.28;10496284;28;20059;-78
2022/03/09 02:53:00;;;;;;;8.80;5.38;;;;;;;0.80;74.56;100187.94;10496693;28;20044;-78
2022/03/09 02:58:01;;;;;;;7.40;5.00;;;;;;;0.71;74.93;100175.50;10496906;28;20074;-78
2022/03/09 03:03:02;;;;;;;6.57;4.57;;;;;;;-0.11;74.97;100018.44;10496064;28;20044;-78
2022/03/09 03:08:03;;;;;;;8.27;5.07;;;;;;;0.71;74.82;100149.38;10463678;28;20136;-77
2022/03/09 03:13:04;;;;;;;14.48;7.20;;;;;;;-0.88;74.59;99866.41;10454799;28;20173;-78
2022/03/09 03:18:05;;;;;;;12.10;6.40;;;;;;;0.64;74.19;100115.00;10453573;28;20053;-78
2022/03/09 03:23:06;;;;;;;10.57;6.35;;;;;;;1.04;74.36;100167.03;10453149;28;20045;-78
2022/03/09 03:28:07;;;;;;;10.80;4.85;;;;;;;1.13;74.53;100157.66;10454263;28;20485;-79
2022/03/09 03:33:10;;;;;;;7.60;5.07;;;;;;;1.00;74.35;100177.84;10453646;28;20045;-77
2022/03/09 03:38:12;;;;;;;7.97;5.32;;;;;;;0.94;74.85;100173.88;10454189;28;20052;-78
2022/03/09 03:43:12;;;;;;;8.25;5.85;;;;;;;0.89;74.84;100129.72;10468742;28;20049;-78
2022/03/09 03:48:13;;;;;;;8.73;4.80;;;;;;;0.89;74.08;100155.06;10451528;28;20087;-76
2022/03/09 03:53:15;;;;;;;6.75;4.50;;;;;;;0.18;74.91;100070.38;10438755;28;20049;-77
2022/03/09 03:58:16;;;;;;;11.43;4.95;;;;;;;0.65;75.46;100140.19;10454213;28;20041;-80
2022/03/09 04:03:17;;;;;;;19.02;5.35;;;;;;;0.25;74.84;100071.63;10453257;28;20095;-82
2022/03/09 04:08:17;;;;;;;10.32;5.10;;;;;;;-0.28;74.92;99974.41;10453042;28;20037;-83
2022/03/09 04:13:19;;;;;;;7.47;5.00;;;;;;;0.81;75.36;100163.47;10453274;28;20144;-76
2022/03/09 04:18:19;;;;;;;13.95;5.72;;;;;;;0.77;75.21;100138.47;10453112;28;20044;-75
2022/03/09 04:23:20;;;;;;;8.35;5.53;;;;;;;0.57;75.32;100124.22;10459494;28;20063;-76
2022/03/09 04:28:21;;;;;;;14.43;5.75;;;;;;;0.83;75.46;100168.56;10460245;28;20044;-76
2022/03/09 04:33:22;;;;;;;7.28;4.72;;;;;;;-0.20;75.56;99998.19;10411541;28;20147;-77
2022/03/09 04:38:23;;;;;;;11.52;5.10;;;;;;;0.79;74.77;100146.22;10501631;28;20036;-94
2022/03/09 04:43:23;;;;;;;8.80;5.78;;;;;;;1.03;74.76;100178.44;10500957;28;20496;-79
2022/03/09 04:48:24;;;;;;;9.35;5.75;;;;;;;0.97;74.46;100142.25;10499392;28;20389;-78
2022/03/09 04:53:25;;;;;;;12.05;5.32;;;;;;;0.22;74.48;100003.94;10499120;28;20567;-78
2022/03/09 04:58:26;;;;;;;8.95;5.72;;;;;;;1.02;74.87;100128.88;10500138;28;20040;-79
2022/03/09 05:03:27;;;;;;;11.93;5.07;;;;;;;1.07;74.41;100121.50;10501132;28;20051;-78
2022/03/09 05:08:28;;;;;;;7.70;5.63;;;;;;;0.78;74.00;100053.00;10500114;28;20046;-78
2022/03/09 05:13:29;;;;;;;11.60;5.25;;;;;;;1.60;74.05;100180.34;10499625;28;20044;-78
2022/03/09 05:18:30;;;;;;;8.57;5.40;;;;;;;1.37;74.33;100116.59;10500109;28;20045;-78
2022/03/09 05:23:31;;;;;;;8.52;5.57;;;;;;;1.57;73.91;100109.88;10500486;28;20036;-78
2022/03/09 05:28:31;;;;;;;9.50;5.70;;;;;;;1.05;73.49;100006.53;10499556;28;20048;-78
2022/03/09 05:33:32;;;;;;;7.07;5.55;;;;;;;1.91;73.40;100138.72;10498239;28;20048;-78
2022/03/09 05:38:33;;;;;;;7.50;5.00;;;;;;;1.93;72.93;100131.59;10499185;28;20048;-79
2022/03/09 05:43:34;;;;;;;8.23;5.43;;;;;;;2.27;73.52;100150.81;10499184;28;20426;-80
2022/03/09 05:48:35;;;;;;;8.45;5.05;;;;;;;2.45;72.87;100140.66;10499152;28;20047;-79
2022/03/09 05:53:36;;;;;;;8.40;5.05;;;;;;;2.40;72.16;100145.44;10497945;28;20526;-79
2022/03/09 05:58:37;;;;;;;7.57;5.28;;;;;;;2.50;72.82;100148.97;10498266;28;20036;-79
2022/03/09 06:03:37;;;;;;;9.82;6.30;;;;;;;1.83;71.48;100008.38;10497485;28;20119;-79
2022/03/09 06:08:38;;;;;;;9.77;6.43;;;;;;;2.68;71.78;100117.84;10497393;28;20049;-79
2022/03/09 06:13:39;;;;;;;9.70;5.50;;;;;;;2.77;71.47;100116.25;10497692;28;20044;-80
2022/03/09 06:18:40;;;;;;;9.55;5.72;;;;;;;3.03;71.02;100113.34;10496920;28;20130;-79
2022/03/09 06:23:41;;;;;;;8.63;6.10;;;;;;;2.94;70.52;100078.19;10497441;28;20044;-79
2022/03/09 06:28:42;;;;;;;10.13;6.25;;;;;;;3.35;70.52;100106.28;10497743;28;20036;-79
2022/03/09 06:33:43;;;;;;;8.05;6.00;;;;;;;2.40;69.41;99933.06;10497455;28;20044;-80
2022/03/09 06:38:44;;;;;;;11.10;6.60;;;;;;;3.27;68.32;100063.22;10497370;28;20048;-78
2022/03/09 06:43:44;;;;;;;8.48;5.93;;;;;;;3.32;67.57;100054.03;10495974;28;20033;-78
2022/03/09 06:48:45;;;;;;;8.45;6.13;;;;;;;3.75;66.90;100088.94;10496322;28;20083;-79
2022/03/09 06:53:46;;;;;;;14.90;5.85;;;;;;;3.90;66.06;100074.50;10496274;28;20511;-79
2022/03/09 06:58:47;;;;;;;9.13;6.03;;;;;;;3.06;64.57;99921.50;10496250;28;20041;-79
2022/03/09 07:03:48;;;;;;;8.75;6.25;;;;;;;4.05;64.81;100044.25;10496165;28;20037;-78
2022/03/09 07:08:49;;;;;;;8.25;6.28;;;;;;;4.25;64.19;100071.44;10495368;28;20424;-78
2022/03/09 07:13:50;;;;;;;11.20;6.22;;;;;;;4.27;63.16;100061.63;10496349;28;20048;-79
2022/03/09 07:18:52;;;;;;;7.53;5.55;;;;;;;4.33;62.29;100057.63;10495115;28;20053;-78
2022/03/09 07:23:53;;;;;;;11.43;6.28;;;;;;;3.92;62.20;99993.75;10495629;28;20492;-78
2022/03/09 07:28:54;;;;;;;11.13;7.10;;;;;;;4.18;61.22;100006.38;10495681;28;20071;-78
2022/03/09 07:33:54;;;;;;;13.63;7.35;;;;;;;4.46;61.44;100034.53;10495241;28;20135;-79
2022/03/09 07:38:55;;;;;;;10.40;7.35;;;;;;;3.51;60.13;99872.09;10494939;28;20496;-79
2022/03/09 07:43:56;;;;;;;11.88;7.85;;;;;;;4.55;60.61;100027.63;10493646;28;20579;-79
2022/03/09 07:48:57;;;;;;;13.80;8.20;;;;;;;4.65;59.88;100027.63;10494281;28;20123;-78
2022/03/09 07:53:58;;;;;;;24.00;7.47;;;;;;;4.01;59.44;99885.19;10498536;28;20086;-79
2022/03/09 07:58:58;;;;;;;9.45;6.30;;;;;;;4.78;58.50;100031.63;10503176;28;20036;-79
2022/03/09 08:03:59;;;;;;;11.05;6.85;;;;;;;4.69;58.24;100024.56;10503258;28;20044;-78
2022/03/09 08:09:00;;;;;;;11.45;6.20;;;;;;;3.86;57.71;99862.91;10502817;28;20508;-78
2022/03/09 08:14:01;;;;;;;10.05;6.40;;;;;;;4.75;57.76;99997.72;10502300;28;20123;-78
2022/03/09 08:19:02;;;;;;;8.73;6.22;;;;;;;4.76;56.85;99988.03;10502878;28;20135;-78
2022/03/09 08:24:03;;;;;;;8.60;6.15;;;;;;;2.89;56.79;99727.00;10501550;28;20182;-78
2022/03/09 08:29:04;;;;;;;10.70;6.65;;;;;;;4.06;58.20;99913.66;10502087;28;20492;-78
2022/03/09 08:34:05;;;;;;;12.43;6.18;;;;;;;4.43;57.98;99984.84;10500974;28;20040;-78
2022/03/09 08:39:06;;;;;;;10.10;5.60;;;;;;;4.45;55.94;99992.59;10502263;28;20044;-78
2022/03/09 08:44:07;;;;;;;12.98;6.80;;;;;;;4.40;57.85;99979.00;10500788;28;20412;-78
2022/03/09 08:49:08;;;;;;;9.35;5.60;;;;;;;4.06;56.83;99895.25;10500646;28;20040;-78
2022/03/09 08:54:09;;;;;;;9.30;5.72;;;;;;;3.74;56.64;99849.06;10500327;28;20041;-78
2022/03/09 08:59:09;;;;;;;8.40;5.32;;;;;;;4.29;54.63;99987.88;10501164;28;20101;-78
2022/03/09 09:04:10;;;;;;;10.02;5.65;;;;;;;3.70;55.34;99908.06;10499500;28;20040;-78
2022/03/09 09:09:11;;;;;;;16.23;5.90;;;;;;;3.62;56.20;99873.75;10500078;28;20060;-78
2022/03/09 09:14:13;;;;;;;10.55;5.65;;;;;;;4.59;55.25;99997.44;10499666;28;20135;-78
2022/03/09 09:19:13;;;;;;;9.70;6.43;;;;;;;4.29;53.61;99979.97;10500490;28;20089;-78
2022/03/09 09:24:14;;;;;;;10.27;6.13;;;;;;;4.43;55.32;99999.78;10499882;28;20115;-79
2022/03/09 09:29:15;;;;;;;11.02;7.18;;;;;;;4.06;55.10;99911.03;10498954;28;20040;-79
2022/03/09 09:34:16;;;;;;;11.65;7.57;;;;;;;4.38;55.01;99929.19;10498824;28;20051;-78
2022/03/09 09:39:17;;;;;;;11.30;7.80;;;;;;;4.26;54.67;99906.63;10499596;28;20036;-79
2022/03/09 09:44:23;;;;;;;11.23;7.63;;;;;;;4.55;54.70;99957.44;10499279;28;20041;-77
2022/03/09 09:49:24;;;;;;;15.25;7.32;;;;;;;3.91;55.75;99879.06;10498117;28;20047;-77
2022/03/09 09:54:27;;;;;;;12.70;8.35;;;;;;;3.83;55.29;99844.78;10498618;28;20426;-77
2022/03/09 09:59:28;;;;;;;16.73;8.77;;;;;;;4.62;55.10;99956.88;10497702;28;20044;-78
2022/03/09 10:04:29;;;;;;;17.10;8.90;;;;;;;3.57;55.33;99795.38;10497949;28;20032;-78
2022/03/09 10:09:39;;;;;;;18.73;9.55;;;;;;;4.75;55.70;99946.88;10497963;28;20060;-78
2022/03/09 10:14:51;;;;;;;10.55;6.53;;;;;;;4.72;55.56;99944.53;10496560;28;20044;-78
2022/03/09 10:20:10;;;;;;;10.27;6.32;;;;;;;4.52;54.98;99928.78;10496633;28;20090;-78
2022/03/09 10:25:10;;;;;;;48.83;25.63;;;;;;;4.69;55.22;99950.06;10497304;28;20033;-78
2022/03/09 10:30:14;;;;;;;79.15;45.95;;;;;;;3.80;54.48;99790.72;10497559;28;20048;-78
2022/03/09 10:35:42;;;;;;;40.05;23.80;;;;;;;4.54;55.52;99910.22;10496493;28;20036;-78
2022/03/09 10:40:48;;;;;;;16.80;9.45;;;;;;;4.39;54.30;99849.31;10497387;28;20045;-78
2022/03/09 10:46:05;;;;;;;14.57;8.45;;;;;;;4.40;54.14;99826.47;10496239;28;20041;-78
2022/03/09 10:51:06;;;;;;;11.55;7.32;;;;;;;4.66;54.97;99926.69;10496562;28;20450;-79
2022/03/09 10:56:07;;;;;;;12.45;7.10;;;;;;;3.90;54.92;99788.06;10497244;28;20094;-78
2022/03/09 11:01:15;;;;;;;12.25;6.93;;;;;;;4.56;55.19;99872.28;10496202;28;20549;-78
2022/03/09 11:06:17;;;;;;;55.45;25.65;;;;;;;4.91;54.67;99905.03;10496093;28;20037;-78
2022/03/09 11:11:20;;;;;;;19.63;10.90;;;;;;;5.10;54.07;99916.50;10496035;28;20106;-78
2022/03/09 11:16:21;;;;;;;25.02;10.07;;;;;;;3.24;53.63;99614.63;10495587;28;20070;-78
2022/03/09 11:21:23;;;;;;;14.80;8.52;;;;;;;5.20;53.61;99909.38;10495397;28;20097;-78
2022/03/09 11:26:27;;;;;;;14.00;8.60;;;;;;;4.39;54.20;99791.47;10495244;28;20068;-78
2022/03/09 11:31:45;;;;;;;9.23;6.18;;;;;;;4.91;53.75;99918.19;10502054;28;20040;-78
2022/03/09 11:36:56;;;;;;;11.50;6.38;;;;;;;3.92;55.24;99767.75;10503545;28;20519;-78
2022/03/09 11:42:22;;;;;;;9.18;5.78;;;;;;;5.08;53.38;99913.97;10503928;28;20040;-78
2022/03/09 11:47:22;;;;;;;8.63;5.82;;;;;;;4.23;54.34;99786.78;10503676;28;20074;-78
2022/03/09 11:52:31;;;;;;;8.35;5.38;;;;;;;4.40;54.03;99816.81;10503269;28;20044;-78
2022/03/09 11:57:50;;;;;;;13.13;6.90;;;;;;;4.75;55.45;99928.47;10503356;28;20135;-78
2022/03/09 12:02:56;;;;;;;10.43;6.70;;;;;;;3.80;55.52;99800.34;10503388;28;20399;-77
2022/03/09 12:08:07;;;;;;;17.52;7.90;;;;;;;4.01;56.67;99874.66;10502855;28;20047;-78
2022/03/09 12:13:19;;;;;;;10.50;6.47;;;;;;;4.17;57.23;99894.31;10503093;28;20064;-78
2022/03/09 12:18:36;;;;;;;15.50;7.85;;;;;;;3.49;56.54;99776.84;10502050;28;20411;-77
2022/03/09 12:24:03;;;;;;;11.85;6.22;;;;;;;4.32;57.53;99924.47;10501610;28;20033;-78
2022/03/09 12:29:24;;;;;;;12.57;8.63;;;;;;;3.34;57.90;99781.66;10502460;28;20033;-77
2022/03/09 12:34:25;;;;;;;14.95;10.43;;;;;;;3.73;59.37;99885.94;10501684;28;20040;-78
2022/03/09 12:39:26;;;;;;;15.43;6.80;;;;;;;3.66;60.70;99894.38;10500080;28;20519;-78
2022/03/09 12:44:30;;;;;;;15.82;7.32;;;;;;;3.56;63.19;99940.81;10492378;28;20098;-76
2022/03/09 12:49:41;;;;;;;12.93;7.47;;;;;;;2.90;64.31;99845.88;10475907;28;20052;-77
2022/03/09 12:54:53;;;;;;;31.38;8.05;;;;;;;3.06;66.85;99938.09;10486792;28;20056;-77
2022/03/09 13:00:00;;;;;;;12.73;7.15;;;;;;;2.95;68.60;99951.25;10485930;28;20079;-75
2022/03/09 13:05:02;;;;;;;10.25;6.95;;;;;;;2.48;68.76;99907.06;10480275;28;20579;-75
2022/03/09 13:10:10;;;;;;;43.03;9.55;;;;;;;2.61;70.99;99946.22;10459586;28;20071;-76
2022/03/09 13:15:12;;;;;;;10.10;7.10;;;;;;;2.45;70.92;99940.56;10459319;28;20052;-76
2022/03/09 13:20:14;;;;;;;15.70;9.05;;;;;;;1.22;71.85;99748.81;10458997;28;20135;-78
2022/03/09 13:25:15;;;;;;;11.13;6.85;;;;;;;2.34;73.49;99945.88;10464249;28;20051;-79
2022/03/09 13:30:19;;;;;;;15.60;7.38;;;;;;;2.16;72.78;99935.09;10481541;28;20055;-79
2022/03/09 13:35:22;;;;;;;13.48;8.43;;;;;;;2.00;73.65;99922.38;10473512;28;20083;-79
2022/03/09 13:40:23;;;;;;;15.60;9.32;;;;;;;2.29;73.45;99943.59;10476080;28;20040;-78
2022/03/09 13:45:29;;;;;;;19.13;10.82;;;;;;;2.34;74.96;99945.88;10474479;28;20408;-79
2022/03/09 13:50:31;;;;;;;20.75;8.65;;;;;;;2.12;74.63;99934.47;10472353;28;20041;-80
2022/03/09 13:55:37;;;;;;;13.68;8.95;;;;;;;0.08;75.80;99647.13;10473034;28;20523;-79
2022/03/09 14:00:40;;;;;;;27.08;12.27;;;;;;;1.65;77.19;99918.16;10465480;28;20558;-79
2022/03/09 14:05:43;;;;;;;33.17;16.40;;;;;;;0.04;77.69;99644.88;10456784;28;20124;-79
2022/03/09 14:10:46;;;;;;;22.13;13.40;;;;;;;1.90;77.66;99948.47;10456363;28;20147;-79
2022/03/09 14:15:47;;;;;;;26.57;14.03;;;;;;;1.93;78.07;99948.22;10455791;28;20044;-79
2022/03/09 14:20:48;;;;;;;19.05;12.15;;;;;;;1.45;78.47;99869.16;10455718;28;20048;-79
2022/03/09 14:25:49;;;;;;;17.88;10.15;;;;;;;1.81;79.28;99934.31;10457055;28;20386;-79
2022/03/09 14:30:50;;;;;;;22.58;13.38;;;;;;;1.31;79.13;99889.38;10475595;28;20045;-79
2022/03/09 14:35:51;;;;;;;26.83;14.80;;;;;;;1.59;80.03;99960.53;10469335;28;20174;-79
2022/03/09 14:40:52;;;;;;;52.83;28.73;;;;;;;0.50;79.66;99793.69;10472722;28;20186;-79
2022/03/09 14:45:53;;;;;;;50.92;27.23;;;;;;;1.43;80.45;99955.66;10478952;28;20137;-78
2022/03/09 14:50:54;;;;;;;23.23;13.27;;;;;;;0.30;80.80;99771.69;10474226;28;20060;-78
2022/03/09 14:55:58;;;;;;;21.27;12.85;;;;;;;1.35;82.40;99947.59;10487108;28;20042;-79
2022/03/09 15:00:59;;;;;;;20.33;11.82;;;;;;;1.55;81.40;99969.56;10482747;28;20036;-79
2022/03/09 15:06:02;;;;;;;21.30;11.10;;;;;;;1.64;82.85;99978.50;10458157;28;20043;-79
2022/03/09 15:11:03;;;;;;;19.88;12.45;;;;;;;1.36;82.57;99965.75;10443934;28;20061;-79
2022/03/09 15:16:04;;;;;;;17.85;11.85;;;;;;;0.42;82.62;99807.34;10457477;28;20032;-79
2022/03/09 15:21:07;;;;;;;19.38;13.02;;;;;;;0.48;82.70;99852.22;10493577;28;20044;-78
2022/03/09 15:26:08;;;;;;;24.88;14.05;;;;;;;1.14;83.20;99950.06;10495715;28;20119;-79
2022/03/09 15:31:09;;;;;;;29.45;16.48;;;;;;;1.17;83.29;99962.91;10471689;28;20049;-77
2022/03/09 15:36:09;;;;;;;27.42;16.85;;;;;;;0.50;83.90;99845.94;10473319;28;20049;-78
2022/03/09 15:41:10;;;;;;;37.22;23.27;;;;;;;1.31;84.61;99975.75;10495770;28;20131;-77
2022/03/09 15:46:12;;;;;;;48.22;24.30;;;;;;;1.49;85.19;99997.06;10488637;28;20094;-78
2022/03/09 15:51:15;;;;;;;32.92;17.23;;;;;;;1.53;85.14;100011.59;10476916;28;20080;-76
2022/03/09 15:56:16;;;;;;;25.88;16.08;;;;;;;1.56;84.90;100006.13;10488872;28;20040;-77
2022/03/09 16:01:18;;;;;;;26.40;16.00;;;;;;;1.14;85.32;99950.06;10476153;28;20134;-77
2022/03/09 16:06:21;;;;;;;26.50;15.93;;;;;;;0.44;85.00;99844.63;10464426;28;20103;-78
2022/03/09 16:11:24;;;;;;;19.63;13.50;;;;;;;1.55;85.59;100042.88;10471265;28;20052;-77
2022/03/09 16:16:26;;;;;;;20.50;12.47;;;;;;;0.47;85.94;99871.47;10496561;28;20041;-78
2022/03/09 16:21:27;;;;;;;18.95;13.20;;;;;;;1.63;85.99;100055.38;10492269;28;20040;-78
2022/03/09 16:26:28;;;;;;;20.00;13.52;;;;;;;1.63;86.20;100071.09;10481464;28;20567;-77
2022/03/09 16:31:29;;;;;;;20.75;14.43;;;;;;;1.66;86.46;100091.81;10479727;28;20044;-77
2022/03/09 16:36:30;;;;;;;21.90;13.43;;;;;;;0.61;86.41;99911.31;10476403;28;20056;-77
2022/03/09 16:41:31;;;;;;;18.48;11.65;;;;;;;1.62;86.99;100101.69;10476950;28;20407;-78
2022/03/09 16:46:35;;;;;;;18.67;12.77;;;;;;;0.79;88.12;99982.31;10466871;28;20174;-78
2022/03/09 16:51:36;;;;;;;34.87;20.93;;;;;;;1.58;87.63;100095.00;10468872;28;20496;-78
2022/03/09 16:56:37;;;;;;;30.35;16.88;;;;;;;0.53;88.26;99934.56;10468266;28;20065;-78
2022/03/09 17:01:38;;;;;;;30.00;17.13;;;;;;;1.56;87.72;100104.78;10474478;28;20449;-79
2022/03/09 17:06:39;;;;;;;21.38;14.02;;;;;;;1.54;88.64;100097.03;10467827;28;20033;-80
2022/03/09 17:11:40;;;;;;;28.35;18.08;;;;;;;1.27;88.56;100065.91;10474816;28;20060;-78
2022/03/09 17:16:40;;;;;;;30.50;20.38;;;;;;;1.37;88.78;100074.72;10459305;28;20048;-79
2022/03/09 17:21:42;;;;;;;22.67;15.50;;;;;;;1.25;89.38;100074.81;10457863;28;20520;-78
2022/03/09 17:26:44;;;;;;;18.50;12.63;;;;;;;1.22;89.31;100080.28;10457923;28;20056;-79
2022/03/09 17:31:44;;;;;;;19.10;13.07;;;;;;;0.79;89.66;100025.94;10474113;28;20095;-78
2022/03/09 17:36:45;;;;;;;23.95;15.15;;;;;;;0.97;89.81;100049.91;10457494;28;20091;-79
2022/03/09 17:41:46;;;;;;;20.42;13.68;;;;;;;1.04;89.74;100054.53;10457231;28;20041;-79
2022/03/09 17:46:47;;;;;;;22.17;14.30;;;;;;;1.01;89.67;100052.16;10457823;28;20047;-79
2022/03/09 17:51:48;;;;;;;22.30;14.00;;;;;;;1.14;89.83;100099.19;10456477;28;20037;-79
2022/03/09 17:56:49;;;;;;;20.90;12.88;;;;;;;0.20;89.51;99936.09;10457858;28;20064;-80
2022/03/09 18:01:50;;;;;;;20.23;13.50;;;;;;;1.28;90.25;100119.06;10457012;28;20071;-79
2022/03/09 18:06:52;;;;;;;27.75;14.50;;;;;;;-0.24;89.67;99897.53;10455496;28;20143;-80
2022/03/09 18:11:54;;;;;;;18.88;10.25;;;;;;;0.97;88.51;100094.34;10458017;28;20103;-79
2022/03/09 18:16:56;;;;;;;20.63;11.38;;;;;;;1.00;88.88;100115.88;10456888;28;20610;-79
2022/03/09 18:21:58;;;;;;;14.75;9.30;;;;;;;0.78;89.50;100103.56;10456361;28;20091;-80
2022/03/09 18:26:59;;;;;;;14.30;9.63;;;;;;;0.72;88.43;100137.13;10455401;28;20532;-80
2022/03/09 18:32:00;;;;;;;14.15;9.68;;;;;;;0.48;89.23;100087.44;10456073;28;20132;-79
2022/03/09 18:37:01;;;;;;;11.60;7.57;;;;;;;0.67;89.05;100120.00;10466208;28;20119;-79
2022/03/09 18:42:02;;;;;;;13.10;7.18;;;;;;;0.57;88.82;100129.47;10454679;28;20534;-79
2022/03/09 18:47:03;;;;;;;12.85;9.07;;;;;;;-0.50;89.93;99951.59;10469724;28;20045;-80
2022/03/09 18:52:04;;;;;;;21.67;12.45;;;;;;;0.69;89.71;100138.19;10495170;28;20047;-79
2022/03/09 18:57:05;;;;;;;26.02;13.02;;;;;;;0.15;89.31;100045.34;10496150;28;20047;-79
2022/03/09 19:02:06;;;;;;;22.63;12.93;;;;;;;-0.15;88.93;100006.56;10495494;28;20041;-81
2022/03/09 19:07:07;;;;;;;18.33;10.43;;;;;;;0.66;90.24;100139.25;10496075;28;20052;-81
2022/03/09 19:12:09;;;;;;;14.50;9.60;;;;;;;0.70;90.21;100134.63;10496238;28;20511;-80
2022/03/09 19:17:10;;;;;;;21.10;12.80;;;;;;;0.45;90.96;100073.66;10496261;28;20601;-81
2022/03/09 19:22:11;;;;;;;18.08;12.07;;;;;;;0.50;90.67;100080.31;10496609;28;20055;-81
2022/03/09 19:27:12;;;;;;;17.95;10.52;;;;;;;0.73;91.50;100121.34;10495240;28;20060;-81
2022/03/09 19:32:13;;;;;;;15.77;10.55;;;;;;;1.05;90.95;100154.81;10495850;28;20048;-80
2022/03/09 19:37:14;;;;;;;12.35;8.68;;;;;;;1.05;91.29;100168.72;10495167;28;20047;-80
2022/03/09 19:42:15;;;;;;;17.58;10.27;;;;;;;1.06;91.17;100159.06;10494446;28;20040;-80
2022/03/09 19:47:16;;;;;;;14.45;9.13;;;;;;;0.94;90.37;100159.97;10494884;28;20045;-80
2022/03/09 19:52:22;;;;;;;15.48;9.52;;;;;;;0.89;90.83;100155.06;10500024;28;20052;-80
2022/03/09 19:57:23;;;;;;;18.25;11.50;;;;;;;0.36;89.80;100074.31;10501761;28;20068;-80
2022/03/09 20:02:25;;;;;;;16.33;10.25;;;;;;;0.80;90.73;100150.50;10498844;28;20040;-81
2022/03/09 20:07:26;;;;;;;16.67;10.02;;;;;;;0.11;90.84;100046.47;10503267;28;20063;-80
2022/03/09 20:12:27;;;;;;;17.00;9.70;;;;;;;0.43;90.57;100099.06;10500704;28;20518;-80
2022/03/09 20:17:28;;;;;;;14.60;9.70;;;;;;;0.45;90.43;100098.97;10501353;28;20048;-80
2022/03/09 20:22:28;;;;;;;14.38;9.32;;;;;;;0.86;90.97;100157.88;10500863;28;20035;-80
2022/03/09 20:27:30;;;;;;;20.00;11.23;;;;;;;0.86;90.90;100161.34;10502411;28;20113;-80
2022/03/09 20:32:31;;;;;;;19.70;10.30;;;;;;;0.44;91.00;100086.81;10501911;28;20040;-80
2022/03/09 20:37:35;;;;;;;13.68;8.95;;;;;;;0.76;91.28;100133.38;10502219;28;20051;-80
2022/03/09 20:42:36;;;;;;;11.10;8.02;;;;;;;0.38;90.52;100082.03;10502224;28;20495;-80
2022/03/09 20:47:37;;;;;;;13.10;8.23;;;;;;;0.87;91.61;100157.78;10501862;28;20082;-80
2022/03/09 20:52:37;;;;;;;12.45;8.35;;;;;;;0.75;91.26;100129.91;10500547;28;20046;-80
2022/03/09 20:57:38;;;;;;;12.68;8.25;;;;;;;0.90;90.96;100149.72;10500528;28;20048;-80
2022/03/09 21:02:44;;;;;;;15.10;9.10;;;;;;;0.47;91.40;100084.00;10489965;28;20533;-80
2022/03/09 21:07:45;;;;;;;13.43;8.95;;;;;;;-0.25;90.71;99974.19;10499205;28;20075;-80
2022/03/09 21:12:46;;;;;;;15.68;9.05;;;;;;;0.75;90.84;100150.84;10501051;28;20114;-80
2022/03/09 21:17:46;;;;;;;13.45;9.20;;;;;;;-0.15;90.82;99998.72;10499825;28;20127;-79
2022/03/09 21:22:47;;;;;;;13.77;9.00;;;;;;;0.58;91.13;100131.13;10499663;28;20123;-79
2022/03/09 21:27:48;;;;;;;11.90;8.85;;;;;;;0.48;91.46;100108.34;10499342;28;20043;-78
2022/03/09 21:32:49;;;;;;;12.68;8.60;;;;;;;0.80;91.21;100174.03;10499874;28;20044;-79
2022/03/09 21:37:51;;;;;;;13.02;9.52;;;;;;;-0.45;91.34;99954.69;10499481;28;20040;-79
2022/03/09 21:42:52;;;;;;;15.00;9.20;;;;;;;0.66;91.66;100144.47;10498853;28;20394;-79
2022/03/09 21:47:52;;;;;;;15.38;9.32;;;;;;;0.37;91.65;100096.88;10499136;28;20032;-79
2022/03/09 21:52:53;;;;;;;13.88;8.90;;;;;;;0.07;91.23;100041.59;10498451;28;20389;-79
2022/03/09 21:57:54;;;;;;;14.15;9.38;;;;;;;-0.08;91.91;100022.63;10498056;28;20557;-79
2022/03/09 22:02:55;;;;;;;13.00;9.05;;;;;;;0.66;92.13;100139.25;10498353;28;20040;-79
2022/03/09 22:07:57;;;;;;;15.75;10.15;;;;;;;0.01;91.75;100034.19;10498345;28;20123;-78
2022/03/09 22:12:58;;;;;;;13.50;9.00;;;;;;;-0.29;91.21;100009.28;10497551;28;20070;-78
2022/03/09 22:18:00;;;;;;;14.95;9.32;;;;;;;0.45;91.02;100157.28;10497810;28;20476;-78
2022/03/09 22:23:00;;;;;;;14.35;9.73;;;;;;;0.53;91.06;100176.81;10491773;28;20033;-78
2022/03/09 22:28:01;;;;;;;14.10;9.48;;;;;;;-0.37;91.19;100027.25;10490190;28;20051;-78
2022/03/09 22:33:02;;;;;;;14.35;9.95;;;;;;;0.41;91.82;100174.09;10496525;28;20053;-78
2022/03/09 22:38:03;;;;;;;19.77;9.52;;;;;;;-0.25;92.04;100076.81;10497511;28;20442;-80
2022/03/09 22:43:04;;;;;;;14.00;9.48;;;;;;;-0.41;91.45;100065.78;10497366;28;20041;-78
2022/03/09 22:48:06;;;;;;;14.68;9.70;;;;;;;-0.39;91.68;100090.00;10496330;28;20135;-77
2022/03/09 22:53:07;;;;;;;13.25;9.43;;;;;;;-0.41;91.65;100070.16;10496244;28;20052;-77
2022/03/09 22:58:08;;;;;;;15.93;10.77;;;;;;;0.27;91.37;100184.72;10494949;28;20058;-77
2022/03/09 23:03:11;;;;;;;14.52;10.07;;;;;;;0.29;91.33;100187.19;10495014;28;20048;-77
2022/03/09 23:08:17;;;;;;;16.20;10.57;;;;;;;-0.66;92.18;100026.63;10496279;28;20045;-77
2022/03/09 23:13:18;;;;;;;19.02;11.80;;;;;;;-0.18;91.16;100103.38;10495586;28;20416;-78
2022/03/09 23:18:18;;;;;;;19.17;12.23;;;;;;;0.10;91.88;100140.63;10494343;28;20098;-78